sensor_id;sensor_type;location;lat;lon;timestamp;P1;durP1;ratioP1;P2;durP2;ratioP2
2061;SDS011;11070;51.336;12.340;2023-06-19T00:00:30;11.40;;;10.30;;
2061;SDS011;11070;51.336;12.340;2023-06-19T00:02:56;11.10;;;10.10;;
2061;SDS011;11070;51.336;12.340;2023-06-19T00:05:21;11.80;;;10.70;;
2061;SDS011;11070;51.336;12.340;2023-06-19T00:07:48;11.90;;;10.90;;
2061;SDS011;11070;51.336;12.340;2023-06-19T00:10:14;12.47;;;11.27;;
2061;SDS011;11070;51.336;12.340;2023-06-19T00:12:40;12.00;;;10.80;;
2061;SDS011;11070;51.336;12.340;2023-06-19T00:15:05;12.73;;;11.57;;
2061;SDS011;11070;51.336;12.340;2023-06-19T00:17:34;11.80;;;10.75;;
2061;SDS011;11070;51.336;12.340;2023-06-19T00:20:02;12.88;;;11.85;;
2061;SDS011;11070;51.336;12.340;2023-06-19T00:22:30;12.43;;;11.25;;
2061;SDS011;11070;51.336;12.340;2023-06-19T00:24:56;11.67;;;10.60;;
2061;SDS011;11070;51.336;12.340;2023-06-19T00:27:22;12.37;;;11.07;;
2061;SDS011;11070;51.336;12.340;2023-06-19T00:29:49;11.80;;;10.20;;
2061;SDS011;11070;51.336;12.340;2023-06-19T00:32:18;12.00;;;10.90;;
2061;SDS011;11070;51.336;12.340;2023-06-19T00:34:43;12.40;;;11.30;;
2061;SDS011;11070;51.336;12.340;2023-06-19T00:37:09;12.40;;;11.30;;
2061;SDS011;11070;51.336;12.340;2023-06-19T00:39:38;12.40;;;11.38;;
2061;SDS011;11070;51.336;12.340;2023-06-19T00:42:06;12.07;;;11.02;;
2061;SDS011;11070;51.336;12.340;2023-06-19T00:44:32;12.23;;;11.20;;
2061;SDS011;11070;51.336;12.340;2023-06-19T00:46:58;11.97;;;10.90;;
2061;SDS011;11070;51.336;12.340;2023-06-19T00:49:28;12.68;;;11.68;;
2061;SDS011;11070;51.336;12.340;2023-06-19T00:51:55;12.05;;;10.95;;
2061;SDS011;11070;51.336;12.340;2023-06-19T00:54:21;11.33;;;10.43;;
2061;SDS011;11070;51.336;12.340;2023-06-19T00:56:47;12.68;;;11.57;;
2061;SDS011;11070;51.336;12.340;2023-06-19T00:59:17;11.85;;;10.85;;
2061;SDS011;11070;51.336;12.340;2023-06-19T01:01:44;11.82;;;10.77;;
2061;SDS011;11070;51.336;12.340;2023-06-19T01:04:10;12.05;;;10.93;;
2061;SDS011;11070;51.336;12.340;2023-06-19T01:07:00;11.02;;;10.13;;
2061;SDS011;11070;51.336;12.340;2023-06-19T01:09:36;12.35;;;11.15;;
2061;SDS011;11070;51.336;12.340;2023-06-19T01:12:10;11.32;;;10.23;;
2061;SDS011;11070;51.336;12.340;2023-06-19T01:14:44;11.32;;;10.40;;
2061;SDS011;11070;51.336;12.340;2023-06-19T01:17:22;11.55;;;10.52;;
2061;SDS011;11070;51.336;12.340;2023-06-19T01:19:48;11.07;;;10.17;;
2061;SDS011;11070;51.336;12.340;2023-06-19T01:24:56;11.75;;;10.57;;
2061;SDS011;11070;51.336;12.340;2023-06-19T01:27:25;12.68;;;11.57;;
2061;SDS011;11070;51.336;12.340;2023-06-19T01:29:56;11.25;;;10.15;;
2061;SDS011;11070;51.336;12.340;2023-06-19T01:32:40;12.98;;;11.75;;
2061;SDS011;11070;51.336;12.340;2023-06-19T01:35:22;11.77;;;10.80;;
2061;SDS011;11070;51.336;12.340;2023-06-19T01:37:50;11.55;;;10.57;;
2061;SDS011;11070;51.336;12.340;2023-06-19T01:40:18;12.07;;;10.98;;
2061;SDS011;11070;51.336;12.340;2023-06-19T01:42:49;12.00;;;10.90;;
2061;SDS011;11070;51.336;12.340;2023-06-19T01:45:19;11.93;;;10.82;;
2061;SDS011;11070;51.336;12.340;2023-06-19T01:47:45;11.37;;;10.37;;
2061;SDS011;11070;51.336;12.340;2023-06-19T01:50:11;12.73;;;11.53;;
2061;SDS011;11070;51.336;12.340;2023-06-19T01:52:38;12.50;;;11.40;;
2061;SDS011;11070;51.336;12.340;2023-06-19T01:55:04;12.10;;;11.05;;
2061;SDS011;11070;51.336;12.340;2023-06-19T01:57:30;12.13;;;11.05;;
2061;SDS011;11070;51.336;12.340;2023-06-19T01:59:56;13.25;;;11.93;;
2061;SDS011;11070;51.336;12.340;2023-06-19T02:02:22;11.60;;;10.60;;
2061;SDS011;11070;51.336;12.340;2023-06-19T02:04:47;11.90;;;10.83;;
2061;SDS011;11070;51.336;12.340;2023-06-19T02:07:13;11.90;;;10.90;;
2061;SDS011;11070;51.336;12.340;2023-06-19T02:09:40;12.03;;;11.03;;
2061;SDS011;11070;51.336;12.340;2023-06-19T02:12:06;12.93;;;11.82;;
2061;SDS011;11070;51.336;12.340;2023-06-19T02:14:32;12.15;;;11.10;;
2061;SDS011;11070;51.336;12.340;2023-06-19T02:16:58;11.73;;;10.63;;
2061;SDS011;11070;51.336;12.340;2023-06-19T02:19:23;12.43;;;11.33;;
2061;SDS011;11070;51.336;12.340;2023-06-19T02:21:49;13.30;;;12.10;;
2061;SDS011;11070;51.336;12.340;2023-06-19T02:24:15;13.33;;;12.13;;
2061;SDS011;11070;51.336;12.340;2023-06-19T02:26:40;13.20;;;11.90;;
2061;SDS011;11070;51.336;12.340;2023-06-19T02:29:06;13.47;;;12.13;;
2061;SDS011;11070;51.336;12.340;2023-06-19T02:31:31;12.60;;;11.60;;
2061;SDS011;11070;51.336;12.340;2023-06-19T02:33:57;12.67;;;11.50;;
2061;SDS011;11070;51.336;12.340;2023-06-19T02:36:23;12.77;;;11.67;;
2061;SDS011;11070;51.336;12.340;2023-06-19T02:38:48;14.70;;;12.53;;
2061;SDS011;11070;51.336;12.340;2023-06-19T02:41:14;12.50;;;11.30;;
2061;SDS011;11070;51.336;12.340;2023-06-19T02:43:41;13.02;;;11.75;;
2061;SDS011;11070;51.336;12.340;2023-06-19T02:46:07;13.63;;;11.60;;
2061;SDS011;11070;51.336;12.340;2023-06-19T02:48:34;13.03;;;11.83;;
2061;SDS011;11070;51.336;12.340;2023-06-19T02:50:59;13.57;;;12.25;;
2061;SDS011;11070;51.336;12.340;2023-06-19T02:53:25;12.47;;;11.37;;
2061;SDS011;11070;51.336;12.340;2023-06-19T02:55:51;13.10;;;11.90;;
2061;SDS011;11070;51.336;12.340;2023-06-19T02:58:16;12.90;;;11.70;;
2061;SDS011;11070;51.336;12.340;2023-06-19T03:00:42;12.73;;;11.53;;
2061;SDS011;11070;51.336;12.340;2023-06-19T03:03:08;13.30;;;12.10;;
2061;SDS011;11070;51.336;12.340;2023-06-19T03:05:34;12.77;;;11.67;;
2061;SDS011;11070;51.336;12.340;2023-06-19T03:07:59;13.43;;;12.27;;
2061;SDS011;11070;51.336;12.340;2023-06-19T03:10:25;12.90;;;11.80;;
2061;SDS011;11070;51.336;12.340;2023-06-19T03:12:51;13.30;;;12.20;;
2061;SDS011;11070;51.336;12.340;2023-06-19T03:15:16;13.20;;;11.90;;
2061;SDS011;11070;51.336;12.340;2023-06-19T03:17:43;13.85;;;12.05;;
2061;SDS011;11070;51.336;12.340;2023-06-19T03:20:08;13.97;;;12.53;;
2061;SDS011;11070;51.336;12.340;2023-06-19T03:22:40;13.60;;;12.20;;
2061;SDS011;11070;51.336;12.340;2023-06-19T03:25:07;13.75;;;12.45;;
2061;SDS011;11070;51.336;12.340;2023-06-19T03:27:33;14.23;;;12.82;;
2061;SDS011;11070;51.336;12.340;2023-06-19T03:29:59;15.15;;;12.38;;
2061;SDS011;11070;51.336;12.340;2023-06-19T03:32:25;13.40;;;12.20;;
2061;SDS011;11070;51.336;12.340;2023-06-19T03:34:51;12.90;;;11.60;;
2061;SDS011;11070;51.336;12.340;2023-06-19T03:37:17;13.00;;;11.90;;
2061;SDS011;11070;51.336;12.340;2023-06-19T03:39:43;13.63;;;12.43;;
2061;SDS011;11070;51.336;12.340;2023-06-19T03:42:08;14.03;;;12.73;;
2061;SDS011;11070;51.336;12.340;2023-06-19T03:44:35;14.13;;;12.75;;
2061;SDS011;11070;51.336;12.340;2023-06-19T03:47:01;14.77;;;13.37;;
2061;SDS011;11070;51.336;12.340;2023-06-19T03:49:26;14.37;;;12.97;;
2061;SDS011;11070;51.336;12.340;2023-06-19T03:51:52;13.23;;;11.83;;
2061;SDS011;11070;51.336;12.340;2023-06-19T03:54:19;13.68;;;12.38;;
2061;SDS011;11070;51.336;12.340;2023-06-19T03:56:45;14.48;;;13.07;;
2061;SDS011;11070;51.336;12.340;2023-06-19T03:59:11;13.53;;;12.33;;
2061;SDS011;11070;51.336;12.340;2023-06-19T04:01:36;13.47;;;12.27;;
2061;SDS011;11070;51.336;12.340;2023-06-19T04:04:02;14.00;;;12.70;;
2061;SDS011;11070;51.336;12.340;2023-06-19T04:06:28;14.50;;;12.97;;
2061;SDS011;11070;51.336;12.340;2023-06-19T04:08:53;15.03;;;13.47;;
2061;SDS011;11070;51.336;12.340;2023-06-19T04:11:19;13.37;;;12.07;;
2061;SDS011;11070;51.336;12.340;2023-06-19T04:13:45;13.88;;;12.57;;
2061;SDS011;11070;51.336;12.340;2023-06-19T04:16:12;14.15;;;12.80;;
2061;SDS011;11070;51.336;12.340;2023-06-19T04:18:38;13.50;;;12.20;;
2061;SDS011;11070;51.336;12.340;2023-06-19T04:21:03;13.03;;;11.93;;
2061;SDS011;11070;51.336;12.340;2023-06-19T04:23:29;14.07;;;12.80;;
2061;SDS011;11070;51.336;12.340;2023-06-19T04:25:55;14.20;;;12.80;;
2061;SDS011;11070;51.336;12.340;2023-06-19T04:28:20;13.17;;;12.07;;
2061;SDS011;11070;51.336;12.340;2023-06-19T04:30:46;14.00;;;12.60;;
2061;SDS011;11070;51.336;12.340;2023-06-19T04:33:12;13.53;;;12.13;;
2061;SDS011;11070;51.336;12.340;2023-06-19T04:35:37;14.80;;;13.33;;
2061;SDS011;11070;51.336;12.340;2023-06-19T04:38:08;14.13;;;12.73;;
2061;SDS011;11070;51.336;12.340;2023-06-19T04:40:34;14.60;;;13.20;;
2061;SDS011;11070;51.336;12.340;2023-06-19T04:43:03;13.00;;;11.90;;
2061;SDS011;11070;51.336;12.340;2023-06-19T04:45:30;14.95;;;13.57;;
2061;SDS011;11070;51.336;12.340;2023-06-19T04:47:56;14.77;;;13.37;;
2061;SDS011;11070;51.336;12.340;2023-06-19T04:50:21;13.63;;;12.23;;
2061;SDS011;11070;51.336;12.340;2023-06-19T04:52:47;14.50;;;13.00;;
2061;SDS011;11070;51.336;12.340;2023-06-19T04:55:15;15.55;;;13.77;;
2061;SDS011;11070;51.336;12.340;2023-06-19T04:57:41;13.87;;;12.60;;
2061;SDS011;11070;51.336;12.340;2023-06-19T05:00:06;13.87;;;12.47;;
2061;SDS011;11070;51.336;12.340;2023-06-19T05:02:35;15.25;;;13.85;;
2061;SDS011;11070;51.336;12.340;2023-06-19T05:05:01;13.13;;;11.93;;
2061;SDS011;11070;51.336;12.340;2023-06-19T05:07:31;14.65;;;13.07;;
2061;SDS011;11070;51.336;12.340;2023-06-19T05:09:57;15.18;;;13.70;;
2061;SDS011;11070;51.336;12.340;2023-06-19T05:12:23;15.30;;;13.80;;
2061;SDS011;11070;51.336;12.340;2023-06-19T05:14:49;14.60;;;13.30;;
2061;SDS011;11070;51.336;12.340;2023-06-19T05:17:15;13.67;;;12.47;;
2061;SDS011;11070;51.336;12.340;2023-06-19T05:19:41;13.47;;;12.33;;
2061;SDS011;11070;51.336;12.340;2023-06-19T05:22:06;14.33;;;12.90;;
2061;SDS011;11070;51.336;12.340;2023-06-19T05:24:32;14.27;;;12.97;;
2061;SDS011;11070;51.336;12.340;2023-06-19T05:26:58;14.73;;;13.13;;
2061;SDS011;11070;51.336;12.340;2023-06-19T05:29:24;13.80;;;12.50;;
2061;SDS011;11070;51.336;12.340;2023-06-19T05:31:50;17.63;;;12.70;;
2061;SDS011;11070;51.336;12.340;2023-06-19T05:34:16;13.57;;;12.27;;
2061;SDS011;11070;51.336;12.340;2023-06-19T05:36:42;13.50;;;12.20;;
2061;SDS011;11070;51.336;12.340;2023-06-19T05:39:10;14.13;;;12.82;;
2061;SDS011;11070;51.336;12.340;2023-06-19T05:41:35;13.43;;;12.17;;
2061;SDS011;11070;51.336;12.340;2023-06-19T05:44:01;15.93;;;13.40;;
2061;SDS011;11070;51.336;12.340;2023-06-19T05:46:27;14.07;;;12.87;;
2061;SDS011;11070;51.336;12.340;2023-06-19T05:48:53;13.77;;;12.47;;
2061;SDS011;11070;51.336;12.340;2023-06-19T05:51:19;15.85;;;14.18;;
2061;SDS011;11070;51.336;12.340;2023-06-19T05:53:45;14.68;;;13.10;;
2061;SDS011;11070;51.336;12.340;2023-06-19T05:56:11;13.93;;;12.40;;
2061;SDS011;11070;51.336;12.340;2023-06-19T05:58:37;14.60;;;13.20;;
2061;SDS011;11070;51.336;12.340;2023-06-19T06:01:04;13.95;;;12.63;;
2061;SDS011;11070;51.336;12.340;2023-06-19T06:03:30;14.97;;;13.47;;
2061;SDS011;11070;51.336;12.340;2023-06-19T06:05:55;14.77;;;13.27;;
2061;SDS011;11070;51.336;12.340;2023-06-19T06:08:28;15.00;;;13.60;;
2061;SDS011;11070;51.336;12.340;2023-06-19T06:10:54;16.17;;;13.65;;
2061;SDS011;11070;51.336;12.340;2023-06-19T06:13:20;21.20;;;13.43;;
2061;SDS011;11070;51.336;12.340;2023-06-19T06:15:45;15.73;;;14.23;;
2061;SDS011;11070;51.336;12.340;2023-06-19T06:18:11;16.43;;;14.73;;
2061;SDS011;11070;51.336;12.340;2023-06-19T06:20:37;14.70;;;13.30;;
2061;SDS011;11070;51.336;12.340;2023-06-19T06:23:02;18.70;;;14.00;;
2061;SDS011;11070;51.336;12.340;2023-06-19T06:25:28;18.30;;;14.17;;
2061;SDS011;11070;51.336;12.340;2023-06-19T06:27:54;14.83;;;13.43;;
2061;SDS011;11070;51.336;12.340;2023-06-19T06:30:20;14.90;;;13.60;;
2061;SDS011;11070;51.336;12.340;2023-06-19T06:32:46;18.03;;;14.97;;
2061;SDS011;11070;51.336;12.340;2023-06-19T06:35:12;16.03;;;14.40;;
2061;SDS011;11070;51.336;12.340;2023-06-19T06:37:37;21.27;;;13.47;;
2061;SDS011;11070;51.336;12.340;2023-06-19T06:40:04;16.17;;;14.43;;
2061;SDS011;11070;51.336;12.340;2023-06-19T06:42:34;16.75;;;15.10;;
2061;SDS011;11070;51.336;12.340;2023-06-19T06:45:00;15.70;;;14.10;;
2061;SDS011;11070;51.336;12.340;2023-06-19T06:47:25;19.00;;;14.33;;
2061;SDS011;11070;51.336;12.340;2023-06-19T06:49:51;15.40;;;13.90;;
2061;SDS011;11070;51.336;12.340;2023-06-19T06:52:17;15.43;;;13.93;;
2061;SDS011;11070;51.336;12.340;2023-06-19T06:54:43;15.32;;;13.70;;
2061;SDS011;11070;51.336;12.340;2023-06-19T06:57:09;16.63;;;14.27;;
2061;SDS011;11070;51.336;12.340;2023-06-19T06:59:34;16.00;;;14.40;;
2061;SDS011;11070;51.336;12.340;2023-06-19T07:02:00;16.97;;;15.27;;
2061;SDS011;11070;51.336;12.340;2023-06-19T07:04:26;16.47;;;14.57;;
2061;SDS011;11070;51.336;12.340;2023-06-19T07:06:51;17.03;;;13.77;;
2061;SDS011;11070;51.336;12.340;2023-06-19T07:09:17;15.77;;;13.73;;
2061;SDS011;11070;51.336;12.340;2023-06-19T07:11:43;16.13;;;14.40;;
2061;SDS011;11070;51.336;12.340;2023-06-19T07:14:09;15.70;;;14.10;;
2061;SDS011;11070;51.336;12.340;2023-06-19T07:16:34;16.70;;;14.90;;
2061;SDS011;11070;51.336;12.340;2023-06-19T07:19:00;19.53;;;14.80;;
2061;SDS011;11070;51.336;12.340;2023-06-19T07:21:26;14.93;;;13.30;;
2061;SDS011;11070;51.336;12.340;2023-06-19T07:23:53;14.07;;;12.75;;
2061;SDS011;11070;51.336;12.340;2023-06-19T07:26:19;16.40;;;14.05;;
2061;SDS011;11070;51.336;12.340;2023-06-19T07:28:45;15.80;;;14.10;;
2061;SDS011;11070;51.336;12.340;2023-06-19T07:31:10;15.60;;;14.10;;
2061;SDS011;11070;51.336;12.340;2023-06-19T07:33:36;17.37;;;13.30;;
2061;SDS011;11070;51.336;12.340;2023-06-19T07:36:02;16.57;;;14.97;;
2061;SDS011;11070;51.336;12.340;2023-06-19T07:38:28;15.50;;;13.83;;
2061;SDS011;11070;51.336;12.340;2023-06-19T07:40:54;16.23;;;14.40;;
2061;SDS011;11070;51.336;12.340;2023-06-19T07:43:19;15.77;;;14.23;;
2061;SDS011;11070;51.336;12.340;2023-06-19T07:45:47;16.70;;;13.95;;
2061;SDS011;11070;51.336;12.340;2023-06-19T07:48:13;14.70;;;13.20;;
2061;SDS011;11070;51.336;12.340;2023-06-19T07:50:39;17.37;;;14.00;;
2061;SDS011;11070;51.336;12.340;2023-06-19T07:53:08;17.33;;;14.00;;
2061;SDS011;11070;51.336;12.340;2023-06-19T07:55:34;14.70;;;13.30;;
2061;SDS011;11070;51.336;12.340;2023-06-19T07:58:02;15.82;;;14.10;;
2061;SDS011;11070;51.336;12.340;2023-06-19T08:00:27;13.90;;;12.50;;
2061;SDS011;11070;51.336;12.340;2023-06-19T08:02:53;13.73;;;12.53;;
2061;SDS011;11070;51.336;12.340;2023-06-19T08:05:19;15.30;;;13.73;;
2061;SDS011;11070;51.336;12.340;2023-06-19T08:07:44;14.53;;;13.03;;
2061;SDS011;11070;51.336;12.340;2023-06-19T08:10:10;14.50;;;13.10;;
2061;SDS011;11070;51.336;12.340;2023-06-19T08:12:36;14.70;;;13.30;;
2061;SDS011;11070;51.336;12.340;2023-06-19T08:15:02;15.13;;;13.60;;
2061;SDS011;11070;51.336;12.340;2023-06-19T08:17:30;14.03;;;12.73;;
2061;SDS011;11070;51.336;12.340;2023-06-19T08:19:56;15.43;;;13.47;;
2061;SDS011;11070;51.336;12.340;2023-06-19T08:22:21;15.53;;;12.43;;
2061;SDS011;11070;51.336;12.340;2023-06-19T08:24:47;14.13;;;12.80;;
2061;SDS011;11070;51.336;12.340;2023-06-19T08:27:13;13.93;;;12.43;;
2061;SDS011;11070;51.336;12.340;2023-06-19T08:29:39;14.80;;;13.40;;
2061;SDS011;11070;51.336;12.340;2023-06-19T08:32:08;13.50;;;12.20;;
2061;SDS011;11070;51.336;12.340;2023-06-19T08:34:34;14.20;;;12.90;;
2061;SDS011;11070;51.336;12.340;2023-06-19T08:37:00;13.60;;;11.97;;
2061;SDS011;11070;51.336;12.340;2023-06-19T08:39:26;14.50;;;12.33;;
2061;SDS011;11070;51.336;12.340;2023-06-19T08:41:51;14.30;;;12.80;;
2061;SDS011;11070;51.336;12.340;2023-06-19T08:44:20;12.50;;;11.23;;
2061;SDS011;11070;51.336;12.340;2023-06-19T08:46:45;13.10;;;11.80;;
2061;SDS011;11070;51.336;12.340;2023-06-19T08:49:12;12.30;;;11.20;;
2061;SDS011;11070;51.336;12.340;2023-06-19T08:51:39;12.07;;;11.07;;
2061;SDS011;11070;51.336;12.340;2023-06-19T08:54:07;10.60;;;9.70;;
2061;SDS011;11070;51.336;12.340;2023-06-19T08:56:34;11.17;;;10.20;;
2061;SDS011;11070;51.336;12.340;2023-06-19T08:59:12;11.70;;;10.70;;
2061;SDS011;11070;51.336;12.340;2023-06-19T09:01:39;11.40;;;10.30;;
2061;SDS011;11070;51.336;12.340;2023-06-19T09:04:11;11.33;;;10.23;;
2061;SDS011;11070;51.336;12.340;2023-06-19T09:06:48;10.80;;;9.90;;
2061;SDS011;11070;51.336;12.340;2023-06-19T09:09:15;11.63;;;10.50;;
2061;SDS011;11070;51.336;12.340;2023-06-19T09:11:41;10.37;;;9.40;;
2061;SDS011;11070;51.336;12.340;2023-06-19T09:14:10;10.83;;;9.93;;
2061;SDS011;11070;51.336;12.340;2023-06-19T09:16:37;12.77;;;10.20;;
2061;SDS011;11070;51.336;12.340;2023-06-19T09:19:04;10.43;;;9.33;;
2061;SDS011;11070;51.336;12.340;2023-06-19T09:21:30;11.07;;;10.07;;
2061;SDS011;11070;51.336;12.340;2023-06-19T09:24:01;10.60;;;9.77;;
2061;SDS011;11070;51.336;12.340;2023-06-19T09:26:31;10.67;;;9.80;;
2061;SDS011;11070;51.336;12.340;2023-06-19T09:28:57;10.40;;;9.43;;
2061;SDS011;11070;51.336;12.340;2023-06-19T09:31:31;10.33;;;9.27;;
2061;SDS011;11070;51.336;12.340;2023-06-19T09:33:58;10.50;;;9.60;;
2061;SDS011;11070;51.336;12.340;2023-06-19T09:36:24;12.27;;;9.87;;
2061;SDS011;11070;51.336;12.340;2023-06-19T09:38:51;15.77;;;10.37;;
2061;SDS011;11070;51.336;12.340;2023-06-19T09:41:17;10.50;;;9.57;;
2061;SDS011;11070;51.336;12.340;2023-06-19T09:43:46;10.07;;;9.33;;
2061;SDS011;11070;51.336;12.340;2023-06-19T09:46:14;11.97;;;10.90;;
2061;SDS011;11070;51.336;12.340;2023-06-19T09:48:42;11.87;;;10.97;;
2061;SDS011;11070;51.336;12.340;2023-06-19T09:51:10;12.17;;;11.10;;
2061;SDS011;11070;51.336;12.340;2023-06-19T09:54:05;11.97;;;10.87;;
2061;SDS011;11070;51.336;12.340;2023-06-19T09:56:31;11.23;;;10.23;;
2061;SDS011;11070;51.336;12.340;2023-06-19T09:58:59;11.63;;;10.57;;
2061;SDS011;11070;51.336;12.340;2023-06-19T10:01:26;12.43;;;11.27;;
2061;SDS011;11070;51.336;12.340;2023-06-19T10:04:12;11.50;;;10.50;;
2061;SDS011;11070;51.336;12.340;2023-06-19T10:06:42;11.70;;;10.63;;
2061;SDS011;11070;51.336;12.340;2023-06-19T10:09:11;11.80;;;10.70;;
2061;SDS011;11070;51.336;12.340;2023-06-19T10:11:49;13.87;;;10.97;;
2061;SDS011;11070;51.336;12.340;2023-06-19T10:14:17;13.60;;;10.83;;
2061;SDS011;11070;51.336;12.340;2023-06-19T10:16:44;12.20;;;11.10;;
2061;SDS011;11070;51.336;12.340;2023-06-19T10:19:15;13.00;;;11.53;;
2061;SDS011;11070;51.336;12.340;2023-06-19T10:21:49;11.97;;;10.97;;
2061;SDS011;11070;51.336;12.340;2023-06-19T10:24:17;11.33;;;10.53;;
2061;SDS011;11070;51.336;12.340;2023-06-19T10:26:55;11.50;;;10.40;;
2061;SDS011;11070;51.336;12.340;2023-06-19T10:29:22;11.20;;;10.20;;
2061;SDS011;11070;51.336;12.340;2023-06-19T10:31:48;11.53;;;10.37;;
2061;SDS011;11070;51.336;12.340;2023-06-19T10:34:15;12.40;;;11.40;;
2061;SDS011;11070;51.336;12.340;2023-06-19T10:36:40;11.57;;;10.43;;
2061;SDS011;11070;51.336;12.340;2023-06-19T10:39:06;11.70;;;10.80;;
2061;SDS011;11070;51.336;12.340;2023-06-19T10:41:32;12.07;;;10.97;;
2061;SDS011;11070;51.336;12.340;2023-06-19T10:46:32;12.00;;;10.90;;
2061;SDS011;11070;51.336;12.340;2023-06-19T10:49:01;12.30;;;11.10;;
2061;SDS011;11070;51.336;12.340;2023-06-19T10:51:38;11.60;;;10.40;;
2061;SDS011;11070;51.336;12.340;2023-06-19T10:54:05;11.30;;;10.30;;
2061;SDS011;11070;51.336;12.340;2023-06-19T10:56:32;12.20;;;10.40;;
2061;SDS011;11070;51.336;12.340;2023-06-19T10:59:02;13.57;;;11.80;;
2061;SDS011;11070;51.336;12.340;2023-06-19T11:01:37;11.60;;;10.70;;
2061;SDS011;11070;51.336;12.340;2023-06-19T11:04:08;11.33;;;10.23;;
2061;SDS011;11070;51.336;12.340;2023-06-19T11:06:35;12.67;;;11.57;;
2061;SDS011;11070;51.336;12.340;2023-06-19T11:09:03;12.03;;;10.93;;
2061;SDS011;11070;51.336;12.340;2023-06-19T11:11:40;11.83;;;10.83;;
2061;SDS011;11070;51.336;12.340;2023-06-19T11:14:06;10.90;;;10.00;;
2061;SDS011;11070;51.336;12.340;2023-06-19T11:16:32;12.20;;;11.30;;
2061;SDS011;11070;51.336;12.340;2023-06-19T11:18:59;11.77;;;10.83;;
2061;SDS011;11070;51.336;12.340;2023-06-19T11:21:29;11.67;;;10.77;;
2061;SDS011;11070;51.336;12.340;2023-06-19T11:24:00;11.73;;;10.63;;
2061;SDS011;11070;51.336;12.340;2023-06-19T11:26:26;12.03;;;11.10;;
2061;SDS011;11070;51.336;12.340;2023-06-19T11:28:52;11.77;;;10.87;;
2061;SDS011;11070;51.336;12.340;2023-06-19T11:31:24;11.80;;;10.80;;
2061;SDS011;11070;51.336;12.340;2023-06-19T11:33:58;13.33;;;11.63;;
2061;SDS011;11070;51.336;12.340;2023-06-19T11:36:24;12.40;;;11.30;;
2061;SDS011;11070;51.336;12.340;2023-06-19T11:38:53;13.63;;;11.53;;
2061;SDS011;11070;51.336;12.340;2023-06-19T11:41:28;12.80;;;11.50;;
2061;SDS011;11070;51.336;12.340;2023-06-19T11:44:04;13.47;;;12.37;;
2061;SDS011;11070;51.336;12.340;2023-06-19T11:46:31;12.50;;;11.40;;
2061;SDS011;11070;51.336;12.340;2023-06-19T11:49:09;12.90;;;11.90;;
2061;SDS011;11070;51.336;12.340;2023-06-19T11:51:39;13.47;;;12.27;;
2061;SDS011;11070;51.336;12.340;2023-06-19T11:54:06;13.70;;;12.50;;
2061;SDS011;11070;51.336;12.340;2023-06-19T11:56:34;12.83;;;11.53;;
2061;SDS011;11070;51.336;12.340;2023-06-19T11:59:03;12.93;;;11.83;;
2061;SDS011;11070;51.336;12.340;2023-06-19T12:01:29;14.83;;;12.87;;
2061;SDS011;11070;51.336;12.340;2023-06-19T12:03:59;12.40;;;11.30;;
2061;SDS011;11070;51.336;12.340;2023-06-19T12:06:25;12.60;;;11.50;;
2061;SDS011;11070;51.336;12.340;2023-06-19T12:08:51;12.50;;;11.50;;
2061;SDS011;11070;51.336;12.340;2023-06-19T12:11:17;16.80;;;12.20;;
2061;SDS011;11070;51.336;12.340;2023-06-19T12:13:43;12.47;;;11.40;;
2061;SDS011;11070;51.336;12.340;2023-06-19T12:16:09;11.87;;;10.70;;
2061;SDS011;11070;51.336;12.340;2023-06-19T12:18:36;13.00;;;12.00;;
2061;SDS011;11070;51.336;12.340;2023-06-19T12:21:02;13.67;;;12.23;;
2061;SDS011;11070;51.336;12.340;2023-06-19T12:23:28;13.77;;;12.47;;
2061;SDS011;11070;51.336;12.340;2023-06-19T12:25:54;13.33;;;12.33;;
2061;SDS011;11070;51.336;12.340;2023-06-19T12:28:20;14.10;;;12.70;;
2061;SDS011;11070;51.336;12.340;2023-06-19T12:30:50;13.30;;;12.10;;
2061;SDS011;11070;51.336;12.340;2023-06-19T12:33:19;14.00;;;12.60;;
2061;SDS011;11070;51.336;12.340;2023-06-19T12:35:45;15.30;;;13.27;;
2061;SDS011;11070;51.336;12.340;2023-06-19T12:38:12;14.83;;;13.10;;
2061;SDS011;11070;51.336;12.340;2023-06-19T12:40:37;12.90;;;11.80;;
2061;SDS011;11070;51.336;12.340;2023-06-19T12:43:03;13.20;;;12.00;;
2061;SDS011;11070;51.336;12.340;2023-06-19T12:45:29;12.13;;;11.33;;
2061;SDS011;11070;51.336;12.340;2023-06-19T12:47:55;11.37;;;10.43;;
2061;SDS011;11070;51.336;12.340;2023-06-19T12:50:21;10.80;;;10.00;;
2061;SDS011;11070;51.336;12.340;2023-06-19T12:52:47;11.47;;;10.57;;
2061;SDS011;11070;51.336;12.340;2023-06-19T12:55:13;11.53;;;10.40;;
2061;SDS011;11070;51.336;12.340;2023-06-19T12:57:39;11.53;;;10.53;;
2061;SDS011;11070;51.336;12.340;2023-06-19T13:00:06;12.07;;;11.07;;
2061;SDS011;11070;51.336;12.340;2023-06-19T13:02:36;10.87;;;10.10;;
2061;SDS011;11070;51.336;12.340;2023-06-19T13:05:03;11.20;;;10.40;;
2061;SDS011;11070;51.336;12.340;2023-06-19T13:07:28;12.30;;;11.10;;
2061;SDS011;11070;51.336;12.340;2023-06-19T13:09:54;13.23;;;12.23;;
2061;SDS011;11070;51.336;12.340;2023-06-19T13:12:21;12.93;;;11.67;;
2061;SDS011;11070;51.336;12.340;2023-06-19T13:14:47;11.83;;;10.93;;
2061;SDS011;11070;51.336;12.340;2023-06-19T13:17:13;11.60;;;10.60;;
2061;SDS011;11070;51.336;12.340;2023-06-19T13:19:39;11.60;;;10.80;;
2061;SDS011;11070;51.336;12.340;2023-06-19T13:22:05;13.60;;;12.13;;
2061;SDS011;11070;51.336;12.340;2023-06-19T13:24:30;12.00;;;10.80;;
2061;SDS011;11070;51.336;12.340;2023-06-19T13:26:56;12.30;;;11.30;;
2061;SDS011;11070;51.336;12.340;2023-06-19T13:29:22;12.20;;;11.20;;
2061;SDS011;11070;51.336;12.340;2023-06-19T13:31:47;12.27;;;11.27;;
2061;SDS011;11070;51.336;12.340;2023-06-19T13:34:13;12.00;;;11.10;;
2061;SDS011;11070;51.336;12.340;2023-06-19T13:36:39;12.10;;;11.10;;
2061;SDS011;11070;51.336;12.340;2023-06-19T13:39:05;11.93;;;10.93;;
2061;SDS011;11070;51.336;12.340;2023-06-19T13:41:31;11.70;;;10.80;;
2061;SDS011;11070;51.336;12.340;2023-06-19T13:43:58;14.23;;;11.27;;
2061;SDS011;11070;51.336;12.340;2023-06-19T13:46:25;12.87;;;11.87;;
2061;SDS011;11070;51.336;12.340;2023-06-19T13:48:50;12.87;;;11.87;;
2061;SDS011;11070;51.336;12.340;2023-06-19T13:51:17;13.23;;;12.03;;
2061;SDS011;11070;51.336;12.340;2023-06-19T13:53:43;13.03;;;12.00;;
2061;SDS011;11070;51.336;12.340;2023-06-19T13:56:09;12.40;;;11.40;;
2061;SDS011;11070;51.336;12.340;2023-06-19T13:58:35;12.70;;;11.70;;
2061;SDS011;11070;51.336;12.340;2023-06-19T14:01:01;13.00;;;11.90;;
2061;SDS011;11070;51.336;12.340;2023-06-19T14:03:27;12.60;;;11.40;;
2061;SDS011;11070;51.336;12.340;2023-06-19T14:05:52;12.00;;;11.10;;
2061;SDS011;11070;51.336;12.340;2023-06-19T14:08:18;13.27;;;11.93;;
2061;SDS011;11070;51.336;12.340;2023-06-19T14:10:44;12.13;;;11.23;;
2061;SDS011;11070;51.336;12.340;2023-06-19T14:13:09;13.10;;;11.87;;
2061;SDS011;11070;51.336;12.340;2023-06-19T14:15:35;13.47;;;12.30;;
2061;SDS011;11070;51.336;12.340;2023-06-19T14:18:00;12.47;;;11.53;;
2061;SDS011;11070;51.336;12.340;2023-06-19T14:20:27;11.50;;;10.63;;
2061;SDS011;11070;51.336;12.340;2023-06-19T14:22:52;11.97;;;10.97;;
2061;SDS011;11070;51.336;12.340;2023-06-19T14:25:18;11.97;;;11.00;;